Time;durP1;ratioP1;P1;durP2;ratioP2;P2;SDS_P1;SDS_P2;PMS_P1;PMS_P2;Temp;Humidity;BMP_temperature;BMP_pressure;BME280_temperature;BME280_humidity;BME280_pressure;Samples;Min_cycle;Max_cycle;Signal;HPM_P1;HPM_P2
2024/01/23 00:00:39;;;;;;;10.63;2.27;;;;;;;;;;10430004;28;20238;-67
2024/01/23 00:05:39;;;;;;;7.23;1.90;;;;;;;;;;10430180;28;20204;-67
2024/01/23 00:10:40;;;;;;;9.50;1.93;;;;;;;;;;10429412;28;20300;-67
2024/01/23 00:15:40;;;;;;;12.00;2.23;;;;;;;;;;10432197;28;20213;-66
2024/01/23 00:20:40;;;;;;;6.97;2.00;;;;;;;;;;10429439;28;21032;-67
2024/01/23 00:25:40;;;;;;;10.43;1.90;;;;;;;;;;10429210;28;20192;-67
2024/01/23 00:30:40;;;;;;;8.97;2.07;;;;;;;;;;10429325;28;20250;-67
2024/01/23 00:35:41;;;;;;;10.23;1.90;;;;;;;;;;10431349;28;20351;-67
2024/01/23 00:40:41;;;;;;;8.73;1.70;;;;;;;;;;10428699;28;20211;-67
2024/01/23 00:45:41;;;;;;;11.20;2.50;;;;;;;;;;10428821;28;20636;-67
2024/01/23 00:50:41;;;;;;;7.53;2.13;;;;;;;;;;10430731;28;20259;-67
2024/01/23 00:55:41;;;;;;;7.30;1.90;;;;;;;;;;10428408;28;20196;-67
2024/01/23 01:00:44;;;;;;;7.03;1.77;;;;;;;;;;10427661;28;20215;-67
2024/01/23 01:05:45;;;;;;;10.00;2.20;;;;;;;;;;10427946;28;20196;-67
2024/01/23 01:10:47;;;;;;;8.63;2.10;;;;;;;;;;10429616;28;20235;-67
2024/01/23 01:15:47;;;;;;;7.30;1.80;;;;;;;;;;10427422;28;20199;-67
2024/01/23 01:20:48;;;;;;;9.20;2.57;;;;;;;;;;10427219;28;20212;-67
2024/01/23 01:25:48;;;;;;;10.27;2.17;;;;;;;;;;10426800;28;20200;-67
2024/01/23 01:30:48;;;;;;;10.60;1.90;;;;;;;;;;10429400;28;20219;-67
2024/01/23 01:35:51;;;;;;;3.97;1.53;;;;;;;;;;10425163;28;20196;-67
2024/01/23 01:40:54;;;;;;;7.37;1.60;;;;;;;;;;10426239;28;20208;-67
2024/01/23 01:46:04;;;;;;;6.63;2.43;;;;;;;;;;10426505;28;20663;-67
2024/01/23 01:51:05;;;;;;;9.67;2.10;;;;;;;;;;10428218;28;20638;-67
2024/01/23 01:56:06;;;;;;;9.53;2.27;;;;;;;;;;10425803;28;20196;-67
2024/01/23 02:01:06;;;;;;;13.73;2.17;;;;;;;;;;10424460;28;20299;-67
2024/01/23 02:06:06;;;;;;;8.23;1.80;;;;;;;;;;10425143;28;20193;-67
2024/01/23 02:11:07;;;;;;;10.77;2.33;;;;;;;;;;10426419;28;20228;-67
2024/01/23 02:16:07;;;;;;;7.93;2.47;;;;;;;;;;10424620;28;20686;-67
2024/01/23 02:21:08;;;;;;;9.43;2.43;;;;;;;;;;10424765;28;20232;-67
2024/01/23 02:26:08;;;;;;;11.73;2.13;;;;;;;;;;10426742;28;20198;-67
2024/01/23 02:31:08;;;;;;;10.43;1.90;;;;;;;;;;10424120;28;20216;-67
2024/01/23 02:36:08;;;;;;;6.30;1.80;;;;;;;;;;10424388;28;20189;-67
2024/01/23 02:41:09;;;;;;;7.93;2.03;;;;;;;;;;10423569;28;20239;-67
2024/01/23 02:46:09;;;;;;;7.53;2.00;;;;;;;;;;10426585;28;20209;-67
2024/01/23 02:51:16;;;;;;;6.90;1.87;;;;;;;;;;10423221;28;20314;-67
2024/01/23 02:56:16;;;;;;;6.97;2.03;;;;;;;;;;10420236;28;20226;-67
2024/01/23 03:01:16;;;;;;;8.30;1.93;;;;;;;;;;10423138;28;20242;-67
2024/01/23 03:06:16;;;;;;;10.93;1.90;;;;;;;;;;10425707;28;20188;-67
2024/01/23 03:11:16;;;;;;;12.10;2.00;;;;;;;;;;10421708;28;20243;-67
2024/01/23 03:16:17;;;;;;;5.10;1.97;;;;;;;;;;10422778;28;20215;-67
2024/01/23 03:21:18;;;;;;;7.53;1.60;;;;;;;;;;10423099;28;20576;-67
2024/01/23 03:26:18;;;;;;;9.13;2.40;;;;;;;;;;10425201;28;20191;-67
2024/01/23 03:31:18;;;;;;;9.50;2.23;;;;;;;;;;10422675;28;20867;-67
2024/01/23 03:36:19;;;;;;;10.90;2.00;;;;;;;;;;10422649;28;20204;-67
2024/01/23 03:41:19;;;;;;;8.30;2.00;;;;;;;;;;10424507;28;20220;-67
2024/01/23 03:46:19;;;;;;;10.40;1.90;;;;;;;;;;10422301;28;20223;-66
2024/01/23 03:51:19;;;;;;;8.63;2.53;;;;;;;;;;10421757;28;20223;-65
2024/01/23 03:56:20;;;;;;;10.43;1.97;;;;;;;;;;10420390;28;20250;-65
2024/01/23 04:01:21;;;;;;;8.23;2.00;;;;;;;;;;10423537;28;20212;-66
2024/01/23 04:06:21;;;;;;;5.27;2.00;;;;;;;;;;10422061;28;20560;-66
2024/01/23 04:11:21;;;;;;;7.97;2.03;;;;;;;;;;10421545;28;20236;-67
2024/01/23 04:16:21;;;;;;;8.37;1.73;;;;;;;;;;10421707;28;20488;-66
2024/01/23 04:21:22;;;;;;;8.87;1.83;;;;;;;;;;10424620;28;20220;-66
2024/01/23 04:26:22;;;;;;;4.53;2.00;;;;;;;;;;10429478;28;20189;-66
2024/01/23 04:31:22;;;;;;;9.10;1.90;;;;;;;;;;10428878;28;20705;-66
2024/01/23 04:36:22;;;;;;;8.33;2.20;;;;;;;;;;10428862;28;20192;-66
2024/01/23 04:41:24;;;;;;;8.90;2.27;;;;;;;;;;10431352;28;20215;-67
2024/01/23 04:46:24;;;;;;;10.77;1.93;;;;;;;;;;10430540;28;20326;-66
2024/01/23 04:51:24;;;;;;;6.57;1.90;;;;;;;;;;10428296;28;20294;-67
2024/01/23 04:56:25;;;;;;;10.87;2.77;;;;;;;;;;10428045;28;20678;-66
2024/01/23 05:01:25;;;;;;;8.10;2.03;;;;;;;;;;10430230;28;20216;-67
2024/01/23 05:06:25;;;;;;;8.13;2.10;;;;;;;;;;10427548;28;20243;-65
2024/01/23 05:11:25;;;;;;;10.40;1.83;;;;;;;;;;10427039;28;20665;-66
2024/01/23 05:16:26;;;;;;;4.60;1.57;;;;;;;;;;10429945;28;20202;-66
2024/01/23 05:21:26;;;;;;;6.47;1.23;;;;;;;;;;10426739;28;20323;-66
2024/01/23 05:26:26;;;;;;;7.53;1.70;;;;;;;;;;10427414;28;20609;-67
2024/01/23 05:31:26;;;;;;;6.67;1.80;;;;;;;;;;10426254;28;20231;-67
2024/01/23 05:36:26;;;;;;;5.97;1.33;;;;;;;;;;10428116;28;20573;-67
2024/01/23 05:41:26;;;;;;;7.07;1.60;;;;;;;;;;10426181;28;20239;-67
2024/01/23 05:46:27;;;;;;;12.17;1.97;;;;;;;;;;10442310;28;20254;-66
2024/01/23 05:51:27;;;;;;;4.47;1.77;;;;;;;;;;10442171;22;20240;-66
2024/01/23 05:56:27;;;;;;;4.20;1.70;;;;;;;;;;10411058;28;20197;-67
2024/01/23 06:01:27;;;;;;;2.23;1.47;;;;;;;;;;10411652;28;20286;-67
2024/01/23 06:06:28;;;;;;;5.17;1.60;;;;;;;;;;10412044;28;20192;-67
2024/01/23 06:11:28;;;;;;;1.63;1.50;;;;;;;;;;10411899;28;20471;-67
2024/01/23 06:16:28;;;;;;;1.73;1.20;;;;;;;;;;10411498;28;20197;-68
2024/01/23 06:21:28;;;;;;;3.87;1.20;;;;;;;;;;10411778;28;20219;-67
2024/01/23 06:26:28;;;;;;;2.43;1.23;;;;;;;;;;10411469;28;20610;-67
2024/01/23 06:31:29;;;;;;;1.63;1.30;;;;;;;;;;10410478;28;20223;-67
2024/01/23 06:36:31;;;;;;;7.20;2.00;;;;;;;;;;10410132;28;20185;-66
2024/01/23 06:41:31;;;;;;;4.93;1.60;;;;;;;;;;10409579;28;20282;-66
2024/01/23 06:46:31;;;;;;;8.63;2.13;;;;;;;;;;10409593;28;20197;-67
2024/01/23 06:51:31;;;;;;;2.93;1.90;;;;;;;;;;10408887;28;20601;-65
2024/01/23 06:56:32;;;;;;;2.87;1.80;;;;;;;;;;10410632;28;20197;-67
2024/01/23 07:01:32;;;;;;;5.67;1.90;;;;;;;;;;10409317;28;20213;-67
2024/01/23 07:06:32;;;;;;;4.43;1.83;;;;;;;;;;10412749;28;20197;-67
2024/01/23 07:11:32;;;;;;;4.43;1.50;;;;;;;;;;10410470;28;20212;-66
2024/01/23 07:16:32;;;;;;;2.80;1.63;;;;;;;;;;10410585;28;20212;-67
2024/01/23 07:21:32;;;;;;;4.73;2.00;;;;;;;;;;10403563;28;20238;-66
2024/01/23 07:26:33;;;;;;;3.00;1.60;;;;;;;;;;10405201;28;20287;-65
2024/01/23 07:31:33;;;;;;;4.23;1.67;;;;;;;;;;10406170;28;20208;-65
2024/01/23 07:36:35;;;;;;;5.43;2.53;;;;;;;;;;10407367;28;20219;-67
2024/01/23 07:41:36;;;;;;;11.07;2.90;;;;;;;;;;10408344;28;21554;-65
2024/01/23 07:46:36;;;;;;;9.53;2.03;;;;;;;;;;10408120;28;20189;-67
2024/01/23 07:51:48;;;;;;;7.23;2.10;;;;;;;;;;10407673;28;20229;-66
2024/01/23 07:56:50;;;;;;;6.37;2.43;;;;;;;;;;10409156;28;20542;-68
2024/01/23 08:01:50;;;;;;;5.43;2.27;;;;;;;;;;10407109;28;20217;-65
2024/01/23 08:06:50;;;;;;;11.77;4.40;;;;;;;;;;10414140;28;20188;-66
2024/01/23 08:11:52;;;;;;;6.13;2.23;;;;;;;;;;10415249;28;20647;-67
2024/01/23 08:16:52;;;;;;;11.43;2.50;;;;;;;;;;10413779;28;20602;-65
2024/01/23 08:21:53;;;;;;;11.20;2.50;;;;;;;;;;10408171;28;20200;-67
2024/01/23 08:26:54;;;;;;;6.13;2.00;;;;;;;;;;10412475;28;20284;-67
2024/01/23 08:31:54;;;;;;;12.37;2.90;;;;;;;;;;10410059;28;20278;-66
2024/01/23 08:36:54;;;;;;;9.87;2.80;;;;;;;;;;10410874;28;20193;-67
2024/01/23 08:41:54;;;;;;;7.63;2.60;;;;;;;;;;10412213;28;20217;-67
2024/01/23 08:46:55;;;;;;;8.60;2.57;;;;;;;;;;10412910;28;20255;-67
2024/01/23 08:51:55;;;;;;;7.60;2.40;;;;;;;;;;10410916;28;20585;-65
2024/01/23 08:56:56;;;;;;;14.90;2.80;;;;;;;;;;10412460;28;20197;-67
2024/01/23 09:01:56;;;;;;;9.73;2.97;;;;;;;;;;10411677;28;20459;-67
2024/01/23 09:06:56;;;;;;;9.90;2.60;;;;;;;;;;10412255;28;20188;-66
2024/01/23 09:11:56;;;;;;;7.57;2.63;;;;;;;;;;10411842;28;20227;-67
2024/01/23 09:16:56;;;;;;;12.40;4.10;;;;;;;;;;10411592;28;20443;-67
2024/01/23 09:21:57;;;;;;;9.37;2.33;;;;;;;;;;10410143;28;20209;-66
2024/01/23 09:27:00;;;;;;;11.67;2.40;;;;;;;;;;10411302;28;20181;-67
2024/01/23 09:32:00;;;;;;;11.13;2.27;;;;;;;;;;10411287;28;20220;-67
2024/01/23 09:37:00;;;;;;;8.03;2.23;;;;;;;;;;10410317;28;20188;-67
2024/01/23 09:42:02;;;;;;;10.37;2.30;;;;;;;;;;10410418;28;20208;-67
2024/01/23 09:47:06;;;;;;;17.00;2.97;;;;;;;;;;10410644;28;20231;-67
2024/01/23 09:52:07;;;;;;;8.83;2.70;;;;;;;;;;10409999;28;20287;-68
2024/01/23 09:57:07;;;;;;;14.50;2.10;;;;;;;;;;10408868;28;20319;-68
2024/01/23 10:02:08;;;;;;;26.35;9.45;;;;;;;;;;10410092;28;20342;-69
2024/01/23 10:07:08;;;;;;;10.53;2.30;;;;;;;;;;10411809;28;20275;-69
2024/01/23 10:12:08;;;;;;;10.73;2.37;;;;;;;;;;10413195;28;20231;-69
2024/01/23 10:17:09;;;;;;;7.77;2.77;;;;;;;;;;10413434;28;20188;-65
2024/01/23 10:22:09;;;;;;;8.37;3.27;;;;;;;;;;10412350;28;20252;-68
2024/01/23 10:27:09;;;;;;;7.37;2.27;;;;;;;;;;10407253;28;20199;-67
2024/01/23 10:32:10;;;;;;;12.10;2.77;;;;;;;;;;10408894;28;20228;-66
2024/01/23 10:37:10;;;;;;;9.60;2.20;;;;;;;;;;10410788;28;20192;-67
2024/01/23 10:42:10;;;;;;;10.93;2.60;;;;;;;;;;10412425;28;20607;-67
2024/01/23 10:47:12;;;;;;;16.90;2.83;;;;;;;;;;10413113;28;20200;-67
2024/01/23 10:52:15;;;;;;;7.97;2.70;;;;;;;;;;10411724;28;20284;-65
2024/01/23 10:57:20;;;;;;;11.10;3.10;;;;;;;;;;10410145;28;20258;-66
2024/01/23 11:02:29;;;;;;;10.67;2.47;;;;;;;;;;10407162;28;20208;-66
2024/01/23 11:07:46;;;;;;;11.83;2.47;;;;;;;;;;10405501;28;20188;-66
2024/01/23 11:13:06;;;;;;;13.30;2.97;;;;;;;;;;10406778;28;20216;-66
2024/01/23 11:18:26;;;;;;;16.37;2.90;;;;;;;;;;10406049;28;20196;-67
2024/01/23 11:23:26;;;;;;;8.33;2.40;;;;;;;;;;10405497;28;20655;-65
2024/01/23 11:28:27;;;;;;;8.20;2.97;;;;;;;;;;10407335;28;20191;-66
2024/01/23 11:33:28;;;;;;;10.67;2.57;;;;;;;;;;10410147;28;20219;-67
2024/01/23 11:38:37;;;;;;;9.63;2.67;;;;;;;;;;10416232;28;20283;-67
2024/01/23 11:43:37;;;;;;;10.33;2.53;;;;;;;;;;10416018;28;20219;-66
2024/01/23 11:48:38;;;;;;;13.37;3.00;;;;;;;;;;10415228;28;20284;-66
2024/01/23 11:53:40;;;;;;;8.20;2.53;;;;;;;;;;10414429;28;20247;-66
2024/01/23 11:58:40;;;;;;;11.87;2.60;;;;;;;;;;10415848;28;20231;-66
2024/01/23 12:03:50;;;;;;;11.13;2.80;;;;;;;;;;10417894;28;20219;-67
2024/01/23 12:08:51;;;;;;;10.10;2.50;;;;;;;;;;10411870;28;20196;-66
2024/01/23 12:13:51;;;;;;;11.27;2.73;;;;;;;;;;10414371;28;20212;-66
2024/01/23 12:18:56;;;;;;;12.27;2.90;;;;;;;;;;10414581;28;20205;-67
2024/01/23 12:23:56;;;;;;;9.73;2.30;;;;;;;;;;10413655;28;20651;-67
2024/01/23 12:28:57;;;;;;;6.07;2.30;;;;;;;;;;10413017;28;20223;-66
2024/01/23 12:33:58;;;;;;;10.57;2.53;;;;;;;;;;10412657;28;20219;-67
2024/01/23 12:38:59;;;;;;;11.23;2.40;;;;;;;;;;10412587;28;20211;-66
2024/01/23 12:43:59;;;;;;;14.33;3.07;;;;;;;;;;10412382;28;20615;-67
2024/01/23 12:49:04;;;;;;;12.07;2.90;;;;;;;;;;10412186;28;20235;-65
2024/01/23 12:54:07;;;;;;;34.93;14.00;;;;;;;;;;10409969;28;21067;-67
2024/01/23 12:59:08;;;;;;;11.47;2.63;;;;;;;;;;10411977;28;20227;-65
2024/01/23 13:04:08;;;;;;;15.03;4.87;;;;;;;;;;10411471;28;20203;-67
2024/01/23 13:09:09;;;;;;;11.43;3.00;;;;;;;;;;10407853;28;20216;-67
2024/01/23 13:14:09;;;;;;;14.73;2.57;;;;;;;;;;10411087;28;20220;-67
2024/01/23 13:19:10;;;;;;;13.73;3.13;;;;;;;;;;10410647;28;20204;-66
2024/01/23 13:24:10;;;;;;;10.67;2.87;;;;;;;;;;10410388;28;20659;-66
2024/01/23 13:29:10;;;;;;;17.03;2.73;;;;;;;;;;10408969;28;20282;-66
2024/01/23 13:34:13;;;;;;;6.30;2.77;;;;;;;;;;10409243;28;20228;-66
2024/01/23 13:39:18;;;;;;;8.57;2.80;;;;;;;;;;10405471;28;20343;-66
2024/01/23 13:44:19;;;;;;;9.47;2.63;;;;;;;;;;10407901;28;20671;-66
2024/01/23 13:49:19;;;;;;;9.80;2.77;;;;;;;;;;10407850;28;20240;-66
2024/01/23 13:54:20;;;;;;;13.77;3.20;;;;;;;;;;10401989;28;20224;-67
2024/01/23 13:59:20;;;;;;;16.93;2.47;;;;;;;;;;10404627;28;20567;-67
2024/01/23 14:04:20;;;;;;;15.93;3.50;;;;;;;;;;10405829;28;20572;-67
2024/01/23 14:09:21;;;;;;;14.13;3.37;;;;;;;;;;10406299;28;20599;-67
2024/01/23 14:14:21;;;;;;;8.53;2.80;;;;;;;;;;10410640;28;20267;-67
2024/01/23 14:19:22;;;;;;;27.30;3.63;;;;;;;;;;10409252;28;20258;-65
2024/01/23 14:24:22;;;;;;;13.10;2.67;;;;;;;;;;10406335;28;20203;-67
2024/01/23 14:29:22;;;;;;;10.93;3.70;;;;;;;;;;10407370;28;20212;-66
2024/01/23 14:34:24;;;;;;;12.17;3.90;;;;;;;;;;10403854;28;20209;-66
2024/01/23 14:39:24;;;;;;;15.03;3.07;;;;;;;;;;10407418;28;20247;-65
2024/01/23 14:44:25;;;;;;;11.57;3.27;;;;;;;;;;10405089;28;20283;-67
2024/01/23 14:49:25;;;;;;;17.53;5.70;;;;;;;;;;10407700;28;20256;-66
2024/01/23 14:54:25;;;;;;;18.67;5.40;;;;;;;;;;10407655;28;20212;-67
2024/01/23 14:59:27;;;;;;;19.60;2.83;;;;;;;;;;10407358;28;20225;-68
2024/01/23 15:04:27;;;;;;;8.57;3.00;;;;;;;;;;10407049;28;20611;-65
2024/01/23 15:09:27;;;;;;;11.57;2.80;;;;;;;;;;10407403;28;20226;-67
2024/01/23 15:14:27;;;;;;;14.97;3.60;;;;;;;;;;10406358;28;20208;-67
2024/01/23 15:19:27;;;;;;;14.07;4.13;;;;;;;;;;10407076;28;20200;-67
2024/01/23 15:24:28;;;;;;;16.17;4.30;;;;;;;;;;10406308;28;20211;-67
2024/01/23 15:29:28;;;;;;;18.10;4.20;;;;;;;;;;10407333;28;20218;-66
2024/01/23 15:34:28;;;;;;;8.47;2.80;;;;;;;;;;10406996;28;20208;-67
2024/01/23 15:39:28;;;;;;;17.37;4.23;;;;;;;;;;10406173;28;20299;-66
2024/01/23 15:44:29;;;;;;;9.50;3.00;;;;;;;;;;10404672;28;20188;-67
2024/01/23 15:49:29;;;;;;;13.17;3.43;;;;;;;;;;10404019;28;20302;-67
2024/01/23 15:54:30;;;;;;;9.53;2.77;;;;;;;;;;10404834;28;20216;-68
2024/01/23 15:59:30;;;;;;;11.23;2.90;;;;;;;;;;10405143;28;20197;-67
2024/01/23 16:04:30;;;;;;;13.90;3.40;;;;;;;;;;10404576;28;20192;-67
2024/01/23 16:09:30;;;;;;;10.90;2.33;;;;;;;;;;10401890;28;20228;-67
2024/01/23 16:14:30;;;;;;;9.40;2.73;;;;;;;;;;10404643;28;20216;-67
2024/01/23 16:19:31;;;;;;;11.17;3.03;;;;;;;;;;10406904;28;20208;-67
2024/01/23 16:24:31;;;;;;;8.47;3.30;;;;;;;;;;10413978;28;20271;-67
2024/01/23 16:29:31;;;;;;;10.20;3.00;;;;;;;;;;10413414;28;20212;-67
2024/01/23 16:34:31;;;;;;;14.67;3.40;;;;;;;;;;10413663;28;20319;-67
2024/01/23 16:39:31;;;;;;;18.53;5.57;;;;;;;;;;10412075;28;20220;-67
2024/01/23 16:44:31;;;;;;;18.90;7.47;;;;;;;;;;10413091;28;20572;-67
2024/01/23 16:49:32;;;;;;;14.17;3.10;;;;;;;;;;10412275;28;20327;-67
2024/01/23 16:54:32;;;;;;;11.37;3.40;;;;;;;;;;10411273;28;20226;-67
2024/01/23 16:59:32;;;;;;;11.87;3.37;;;;;;;;;;10410750;28;20208;-67
2024/01/23 17:04:33;;;;;;;17.17;2.93;;;;;;;;;;10404173;28;20736;-66
2024/01/23 17:09:33;;;;;;;10.33;2.53;;;;;;;;;;10410582;28;20231;-67
2024/01/23 17:14:33;;;;;;;13.60;3.20;;;;;;;;;;10409848;28;20220;-67
2024/01/23 17:19:34;;;;;;;9.63;2.60;;;;;;;;;;10408285;28;20216;-67
2024/01/23 17:24:34;;;;;;;19.77;4.50;;;;;;;;;;10412687;28;20192;-67
2024/01/23 17:29:36;;;;;;;16.77;3.50;;;;;;;;;;10411217;28;20266;-67
2024/01/23 17:34:37;;;;;;;12.40;2.80;;;;;;;;;;10412024;28;20270;-67
2024/01/23 17:39:37;;;;;;;15.00;2.73;;;;;;;;;;10410737;28;20266;-67
2024/01/23 17:44:37;;;;;;;13.40;2.40;;;;;;;;;;10409405;28;20207;-67
2024/01/23 17:49:37;;;;;;;11.10;3.90;;;;;;;;;;10409190;28;20294;-67
2024/01/23 17:54:37;;;;;;;14.27;4.03;;;;;;;;;;10407905;28;20235;-67
2024/01/23 17:59:38;;;;;;;17.53;3.57;;;;;;;;;;10407864;28;20216;-67
2024/01/23 18:04:38;;;;;;;6.53;2.13;;;;;;;;;;10408976;28;20188;-66
2024/01/23 18:09:38;;;;;;;11.80;3.27;;;;;;;;;;10406276;28;20343;-67
2024/01/23 18:14:38;;;;;;;14.73;2.83;;;;;;;;;;10406043;28;20219;-67
2024/01/23 18:19:39;;;;;;;15.13;3.40;;;;;;;;;;10405817;28;20686;-68
2024/01/23 18:24:42;;;;;;;15.37;2.77;;;;;;;;;;10406441;28;20571;-67
2024/01/23 18:29:42;;;;;;;8.37;3.17;;;;;;;;;;10403863;28;20224;-67
2024/01/23 18:34:43;;;;;;;11.40;2.50;;;;;;;;;;10405091;28;20274;-67
2024/01/23 18:39:43;;;;;;;20.77;3.30;;;;;;;;;;10405229;28;20575;-67
2024/01/23 18:44:43;;;;;;;15.17;2.83;;;;;;;;;;10404676;28;20201;-67
2024/01/23 18:49:43;;;;;;;12.23;2.57;;;;;;;;;;10410212;28;20321;-68
2024/01/23 18:54:44;;;;;;;18.17;3.23;;;;;;;;;;10406727;28;20223;-67
2024/01/23 18:59:44;;;;;;;13.23;2.57;;;;;;;;;;10405463;28;20658;-67
2024/01/23 19:04:44;;;;;;;17.77;2.90;;;;;;;;;;10407336;28;20431;-67
2024/01/23 19:09:44;;;;;;;12.93;2.77;;;;;;;;;;10406617;28;20567;-67
2024/01/23 19:14:44;;;;;;;12.73;3.30;;;;;;;;;;10401314;28;20274;-67
2024/01/23 19:19:45;;;;;;;13.40;2.67;;;;;;;;;;10401549;28;20215;-66
2024/01/23 19:24:45;;;;;;;17.70;3.00;;;;;;;;;;10406673;28;20188;-67
2024/01/23 19:29:45;;;;;;;12.00;2.57;;;;;;;;;;10406567;28;20302;-67
2024/01/23 19:34:45;;;;;;;17.03;3.10;;;;;;;;;;10406152;28;20487;-67
2024/01/23 19:39:46;;;;;;;15.77;3.10;;;;;;;;;;10406211;28;20465;-66
2024/01/23 19:44:46;;;;;;;18.75;2.30;;;;;;;;;;10406588;28;20646;-67
2024/01/23 19:49:46;;;;;;;16.30;2.83;;;;;;;;;;10406822;28;20325;-67
2024/01/23 19:54:46;;;;;;;15.10;3.30;;;;;;;;;;10410551;28;20222;-67
2024/01/23 19:59:46;;;;;;;14.83;3.07;;;;;;;;;;10415401;28;20345;-65
2024/01/23 20:04:47;;;;;;;14.47;3.63;;;;;;;;;;10415682;28;20216;-67
2024/01/23 20:09:47;;;;;;;10.00;2.80;;;;;;;;;;10415040;28;20640;-67
2024/01/23 20:14:47;;;;;;;13.27;2.60;;;;;;;;;;10415061;28;20209;-66
2024/01/23 20:19:47;;;;;;;11.77;3.00;;;;;;;;;;10414459;28;20205;-67
2024/01/23 20:24:47;;;;;;;21.50;2.67;;;;;;;;;;10413710;28;20196;-67
2024/01/23 20:29:47;;;;;;;12.03;2.37;;;;;;;;;;10414329;28;20679;-67
2024/01/23 20:34:48;;;;;;;14.02;2.67;;;;;;;;;;10414397;28;20609;-67
2024/01/23 20:39:49;;;;;;;15.33;2.87;;;;;;;;;;10413879;28;20208;-66
2024/01/23 20:44:49;;;;;;;14.00;2.30;;;;;;;;;;10413679;28;20196;-68
2024/01/23 20:49:53;;;;;;;17.97;3.23;;;;;;;;;;10414689;28;20228;-68
2024/01/23 20:54:53;;;;;;;11.87;2.87;;;;;;;;;;10410522;28;20715;-68
2024/01/23 20:59:54;;;;;;;11.77;2.40;;;;;;;;;;10413345;28;20208;-67
2024/01/23 21:04:55;;;;;;;18.40;3.43;;;;;;;;;;10412435;28;20539;-68
2024/01/23 21:09:55;;;;;;;8.97;2.60;;;;;;;;;;10413374;28;20204;-66
2024/01/23 21:14:55;;;;;;;15.50;2.83;;;;;;;;;;10412885;28;20728;-68
2024/01/23 21:19:55;;;;;;;7.83;2.50;;;;;;;;;;10410239;28;20661;-68
2024/01/23 21:24:55;;;;;;;12.50;2.70;;;;;;;;;;10410747;28;20184;-67
2024/01/23 21:29:56;;;;;;;11.20;3.07;;;;;;;;;;10411873;28;20232;-67
2024/01/23 21:34:56;;;;;;;12.63;2.90;;;;;;;;;;10391350;28;20227;-67
2024/01/23 21:39:56;;;;;;;12.20;2.57;;;;;;;;;;10411448;28;20204;-68
2024/01/23 21:44:56;;;;;;;12.13;2.90;;;;;;;;;;10411907;28;20197;-68
2024/01/23 21:49:56;;;;;;;25.57;2.90;;;;;;;;;;10411506;28;20240;-68
2024/01/23 21:54:57;;;;;;;13.40;2.80;;;;;;;;;;10411929;28;20224;-68
2024/01/23 21:59:57;;;;;;;15.23;2.67;;;;;;;;;;10410900;28;20204;-68
2024/01/23 22:04:57;;;;;;;13.43;2.37;;;;;;;;;;10411174;28;20215;-67
2024/01/23 22:09:57;;;;;;;9.97;2.50;;;;;;;;;;10411041;28;20213;-68
2024/01/23 22:14:57;;;;;;;14.50;3.10;;;;;;;;;;10410218;28;20216;-68
2024/01/23 22:19:58;;;;;;;14.50;2.53;;;;;;;;;;10409740;28;20212;-66
2024/01/23 22:24:58;;;;;;;8.73;2.80;;;;;;;;;;10410381;28;20623;-67
2024/01/23 22:29:58;;;;;;;8.70;2.27;;;;;;;;;;10410221;28;20239;-68
2024/01/23 22:35:00;;;;;;;9.00;2.30;;;;;;;;;;10410224;28;20212;-67
2024/01/23 22:40:00;;;;;;;8.33;2.13;;;;;;;;;;10409336;28;20212;-68
2024/01/23 22:45:00;;;;;;;11.40;2.40;;;;;;;;;;10409998;28;20196;-67
2024/01/23 22:50:01;;;;;;;5.70;1.97;;;;;;;;;;10409776;28;20236;-68
2024/01/23 22:55:01;;;;;;;5.73;1.17;;;;;;;;;;10409643;28;20773;-68
2024/01/23 23:00:02;;;;;;;4.57;1.70;;;;;;;;;;10408921;28;20201;-67
2024/01/23 23:05:02;;;;;;;5.20;1.30;;;;;;;;;;10409398;28;20204;-67
2024/01/23 23:10:04;;;;;;;1.37;1.07;;;;;;;;;;10409255;28;20266;-68
2024/01/23 23:15:04;;;;;;;5.40;1.43;;;;;;;;;;10409199;28;20227;-67
2024/01/23 23:20:10;;;;;;;2.60;1.10;;;;;;;;;;10408311;28;20208;-68
2024/01/23 23:25:10;;;;;;;2.80;1.50;;;;;;;;;;10408031;28;20208;-67
2024/01/23 23:30:13;;;;;;;2.47;1.10;;;;;;;;;;10408576;28;20217;-68
2024/01/23 23:35:13;;;;;;;3.67;0.93;;;;;;;;;;10408125;28;20204;-67
2024/01/23 23:40:13;;;;;;;3.27;1.10;;;;;;;;;;10408583;28;20201;-68
2024/01/23 23:45:13;;;;;;;1.60;0.90;;;;;;;;;;10408405;28;20197;-67
2024/01/23 23:50:14;;;;;;;0.83;0.83;;;;;;;;;;10408201;28;20232;-67
2024/01/23 23:55:14;;;;;;;0.70;0.70;;;;;;;;;;10411045;28;20238;-67
